Time;durP1;ratioP1;P1;durP2;ratioP2;P2;SDS_P1;SDS_P2;PMS_P1;PMS_P2;Temp;Humidity;BMP_temperature;BMP_pressure;BME280_temperature;BME280_humidity;BME280_pressure;Samples;Min_cycle;Max_cycle;Signal;HPM_P1;HPM_P2
2022/12/03 00:01:23;;;;;;;69.25;41.67;;;;;;;-0.65;80.75;101886.28;5020535;28;20097;-86
2022/12/03 00:03:51;;;;;;;67.32;39.85;;;;;;;-0.68;80.34;101881.06;4992381;28;20101;-85
2022/12/03 00:06:19;;;;;;;65.97;39.55;;;;;;;-0.58;81.43;101880.31;5022696;28;20088;-85
2022/12/03 00:08:46;;;;;;;58.13;36.80;;;;;;;-0.50;80.69;101882.91;5019282;28;20098;-86
2022/12/03 00:11:14;;;;;;;61.55;39.13;;;;;;;-0.52;80.25;101879.47;5035236;28;20085;-86
2022/12/03 00:13:41;;;;;;;59.05;37.30;;;;;;;-0.52;81.02;101876.88;5029211;28;20102;-85
2022/12/03 00:16:09;;;;;;;68.18;40.85;;;;;;;-0.54;80.64;101874.31;5007017;28;20125;-85
2022/12/03 00:18:36;;;;;;;58.00;36.70;;;;;;;-0.46;80.69;101876.91;5005356;28;20125;-85
2022/12/03 00:21:04;;;;;;;61.13;37.03;;;;;;;-0.42;80.73;101876.09;5006411;28;20089;-85
2022/12/03 00:23:31;;;;;;;63.33;38.70;;;;;;;-0.45;80.53;101873.50;5024886;28;20516;-85
2022/12/03 00:26:06;;;;;;;59.78;37.05;;;;;;;-0.53;79.65;101868.25;5011906;28;20117;-86
2022/12/03 00:28:34;;;;;;;58.35;38.70;;;;;;;-0.48;80.07;101878.63;5010145;28;20109;-85
2022/12/03 00:31:01;;;;;;;60.05;38.67;;;;;;;-0.53;80.05;101880.34;5006496;28;20105;-85
2022/12/03 00:33:29;;;;;;;59.00;37.17;;;;;;;-0.49;80.29;101873.47;5026722;28;20124;-86
2022/12/03 00:35:56;;;;;;;61.47;38.85;;;;;;;-0.41;80.82;101874.34;4996041;28;20117;-86
2022/12/03 00:38:23;;;;;;;66.07;39.45;;;;;;;-0.42;79.96;101881.25;5010871;28;20587;-86
2022/12/03 00:40:51;;;;;;;63.03;37.90;;;;;;;-0.54;78.76;101876.88;5007594;28;20116;-86
2022/12/03 00:43:18;;;;;;;60.17;39.08;;;;;;;-0.61;79.74;101869.06;5023596;28;20140;-85
2022/12/03 00:45:46;;;;;;;62.30;39.60;;;;;;;-0.60;79.90;101868.19;5031823;28;20121;-85
2022/12/03 00:48:13;;;;;;;60.10;37.30;;;;;;;-0.69;79.18;101863.81;5022293;28;20109;-85
2022/12/03 00:50:41;;;;;;;64.22;40.90;;;;;;;-0.70;79.67;101866.41;5011951;28;20104;-86
2022/12/03 00:53:08;;;;;;;59.35;38.85;;;;;;;-0.58;80.42;101859.63;5007757;28;20093;-86
2022/12/03 00:55:35;;;;;;;58.40;35.75;;;;;;;-0.52;80.17;101864.81;5001125;28;20216;-86
2022/12/03 00:58:08;;;;;;;56.92;36.97;;;;;;;-0.45;79.39;101864.84;5003770;28;20137;-86
2022/12/03 01:00:36;;;;;;;62.80;37.30;;;;;;;-0.58;78.65;101862.19;5035194;28;20097;-86
2022/12/03 01:03:04;;;;;;;56.95;37.38;;;;;;;-0.64;79.33;101862.13;5014030;28;20098;-85
2022/12/03 01:05:32;;;;;;;60.47;38.95;;;;;;;-0.54;79.79;101858.78;4992296;28;20516;-85
2022/12/03 01:07:59;;;;;;;65.97;38.08;;;;;;;-0.52;79.94;101872.56;4991721;28;20097;-86
2022/12/03 01:10:27;;;;;;;58.75;36.85;;;;;;;-0.46;79.67;101868.28;5011596;28;20072;-85
2022/12/03 01:12:54;;;;;;;62.17;38.97;;;;;;;-0.57;78.87;101863.94;5021935;28;20064;-86
2022/12/03 01:15:22;;;;;;;61.08;39.30;;;;;;;-0.55;79.64;101863.91;5012495;23;20088;-63
2022/12/03 01:17:49;;;;;;;64.07;39.17;;;;;;;-0.48;80.06;101865.72;5029647;28;20047;-63
2022/12/03 01:20:17;;;;;;;66.75;38.67;;;;;;;-0.58;78.63;101867.38;5022974;28;20501;-62
2022/12/03 01:22:44;;;;;;;63.08;39.22;;;;;;;-0.61;79.02;101872.50;5029151;28;20045;-62
2022/12/03 01:25:11;;;;;;;61.13;37.65;;;;;;;-0.54;79.83;101865.66;5021886;28;20640;-63
2022/12/03 01:27:39;;;;;;;68.80;40.90;;;;;;;-0.54;79.36;101871.72;5023748;28;20518;-62
2022/12/03 01:30:07;;;;;;;60.00;39.65;;;;;;;-0.46;80.02;101874.31;5028340;28;20052;-62
2022/12/03 01:32:35;;;;;;;62.55;37.88;;;;;;;-0.53;79.00;101868.25;5028313;28;20053;-63
2022/12/03 01:35:02;;;;;;;70.03;42.10;;;;;;;-0.56;79.15;101863.06;5026228;28;20049;-63
2022/12/03 01:37:30;;;;;;;62.25;40.13;;;;;;;-0.47;79.35;101872.59;5028097;28;20053;-63
2022/12/03 01:39:57;;;;;;;70.22;43.35;;;;;;;-0.53;79.72;101864.81;5029794;28;20056;-62
2022/12/03 01:42:28;;;;;;;63.55;40.33;;;;;;;-0.59;79.34;101863.03;5030522;28;20532;-62
2022/12/03 01:44:56;;;;;;;60.08;38.67;;;;;;;-0.58;79.39;101866.50;5028325;28;20041;-63
2022/12/03 01:47:30;;;;;;;61.80;39.08;;;;;;;-0.51;79.34;101869.13;5023163;28;20049;-61
2022/12/03 01:50:12;;;;;;;64.15;39.83;;;;;;;-0.57;79.17;101866.50;5027877;28;20054;-63
2022/12/03 01:52:40;;;;;;;62.70;38.85;;;;;;;-0.61;79.32;101857.00;5029109;28;20060;-63
2022/12/03 01:55:16;;;;;;;67.25;40.38;;;;;;;-0.53;79.18;101857.91;5028133;28;20049;-63
2022/12/03 01:57:47;;;;;;;61.03;39.17;;;;;;;-0.59;79.24;101857.84;5029141;28;20509;-62
2022/12/03 02:00:20;;;;;;;63.50;39.78;;;;;;;-0.56;79.63;101857.88;5027965;28;20079;-63
2022/12/03 02:02:53;;;;;;;63.45;40.97;;;;;;;-0.46;79.13;101857.94;5029029;28;20064;-63
2022/12/03 02:05:26;;;;;;;66.22;40.72;;;;;;;-0.55;79.17;101857.03;5028026;28;20054;-62
2022/12/03 02:07:54;;;;;;;60.47;38.42;;;;;;;-0.57;79.29;101852.72;5023425;28;20059;-61
2022/12/03 02:10:30;;;;;;;62.83;39.25;;;;;;;-0.58;79.52;101856.16;5028550;28;20041;-61
2022/12/03 02:13:00;;;;;;;72.50;42.70;;;;;;;-0.61;79.23;101851.81;5017502;28;20059;-62
2022/12/03 02:15:28;;;;;;;65.85;40.30;;;;;;;-0.55;79.65;101863.91;5029338;28;20595;-62
2022/12/03 02:17:56;;;;;;;69.43;39.08;;;;;;;-0.43;79.31;101858.84;5027356;28;20046;-62
2022/12/03 02:20:23;;;;;;;67.55;40.90;;;;;;;-0.38;78.55;101861.44;5030237;28;20054;-62
2022/12/03 02:23:07;;;;;;;61.63;37.03;;;;;;;-0.40;78.82;101858.88;5025147;28;20413;-62
2022/12/03 02:25:35;;;;;;;61.15;38.75;;;;;;;-0.51;78.55;101863.09;5032766;28;20517;-60
2022/12/03 02:28:03;;;;;;;61.60;38.15;;;;;;;-0.57;78.68;101860.47;5031679;28;20042;-61
2022/12/03 02:30:31;;;;;;;70.32;42.05;;;;;;;-0.55;79.30;101857.03;5031195;28;20053;-60
2022/12/03 02:32:59;;;;;;;61.95;39.50;;;;;;;-0.58;79.16;101858.75;5032381;28;20059;-63
2022/12/03 02:35:30;;;;;;;59.00;36.90;;;;;;;-0.63;78.96;101850.97;5031186;28;20561;-63
2022/12/03 02:38:18;;;;;;;57.28;36.58;;;;;;;-0.68;79.24;101855.22;5031684;28;20429;-62
2022/12/03 02:40:46;;;;;;;61.38;38.78;;;;;;;-0.58;79.54;101862.19;5032155;28;20064;-61
2022/12/03 02:43:15;;;;;;;59.75;37.22;;;;;;;-0.63;78.70;101855.25;5030544;28;20079;-61
2022/12/03 02:45:45;;;;;;;56.35;36.53;;;;;;;-0.61;78.99;101857.00;5031532;28;20052;-65
2022/12/03 02:48:22;;;;;;;59.95;37.22;;;;;;;-0.60;79.21;101853.53;5034159;28;20049;-64
2022/12/03 02:50:55;;;;;;;64.07;38.15;;;;;;;-0.58;79.18;101851.84;5033366;28;20534;-63
2022/12/03 02:53:26;;;;;;;65.25;38.75;;;;;;;-0.69;78.29;101853.50;5032281;28;20504;-63
2022/12/03 02:55:55;;;;;;;56.95;35.83;;;;;;;-0.74;78.45;101856.91;5032315;28;20054;-63
2022/12/03 02:58:24;;;;;;;60.60;36.65;;;;;;;-0.74;79.05;101855.19;5030894;28;20044;-63
2022/12/03 03:00:52;;;;;;;60.40;36.47;;;;;;;-0.67;79.41;101856.09;5023755;28;20052;-63
2022/12/03 03:03:20;;;;;;;59.00;36.75;;;;;;;-0.62;78.82;101850.09;5029942;28;20060;-63
2022/12/03 03:05:47;;;;;;;62.17;36.38;;;;;;;-0.58;79.50;101858.75;5032671;28;20049;-63
2022/12/03 03:08:15;;;;;;;62.53;38.28;;;;;;;-0.53;79.28;101855.34;5032888;28;20561;-63
2022/12/03 03:10:43;;;;;;;62.10;37.65;;;;;;;-0.52;78.69;101856.19;5031683;28;20045;-63
2022/12/03 03:13:12;;;;;;;65.82;38.35;;;;;;;-0.53;79.55;101855.34;5032802;28;20052;-63
2022/12/03 03:15:40;;;;;;;64.35;37.65;;;;;;;-0.56;79.45;101855.31;5031461;28;20054;-65
2022/12/03 03:18:09;;;;;;;58.00;36.55;;;;;;;-0.47;79.83;101851.91;5030318;28;20050;-63
2022/12/03 03:20:37;;;;;;;66.45;38.67;;;;;;;-0.38;79.40;101845.94;5028167;28;20048;-63
2022/12/03 03:23:11;;;;;;;57.50;36.20;;;;;;;-0.38;78.65;101848.50;5029374;28;20053;-68
2022/12/03 03:25:40;;;;;;;67.68;39.58;;;;;;;-0.34;78.71;101851.13;5032024;28;20055;-62
2022/12/03 03:28:08;;;;;;;63.90;38.60;;;;;;;-0.45;78.25;101842.47;5030380;28;20046;-63
2022/12/03 03:30:37;;;;;;;59.22;37.65;;;;;;;-0.43;78.69;101847.63;5030505;28;20053;-64
2022/12/03 03:33:05;;;;;;;60.70;37.67;;;;;;;-0.44;78.67;101843.31;5031327;28;20045;-64
2022/12/03 03:35:32;;;;;;;64.95;38.22;;;;;;;-0.53;78.97;101837.22;5030402;28;21428;-64
2022/12/03 03:37:59;;;;;;;61.22;37.03;;;;;;;-0.53;79.39;101836.38;5030394;28;20045;-63
2022/12/03 03:40:27;;;;;;;70.05;39.90;;;;;;;-0.56;79.10;101833.75;5029458;28;20057;-64
2022/12/03 03:42:55;;;;;;;60.45;35.50;;;;;;;-0.59;79.18;101838.91;5031805;28;20045;-63
2022/12/03 03:45:22;;;;;;;66.03;36.22;;;;;;;-0.61;79.57;101830.28;5030381;28;20059;-65
2022/12/03 03:47:58;;;;;;;63.30;36.72;;;;;;;-0.60;79.32;101830.28;5031512;28;20048;-63
2022/12/03 03:50:27;;;;;;;67.43;41.88;;;;;;;-0.56;79.66;101829.44;5027459;28;20053;-63
2022/12/03 03:52:55;;;;;;;69.10;41.30;;;;;;;-0.55;79.09;101826.00;5029136;28;20509;-62
2022/12/03 03:55:23;;;;;;;68.78;39.20;;;;;;;-0.56;79.34;101826.00;5030023;28;20540;-63
2022/12/03 03:57:50;;;;;;;60.50;37.03;;;;;;;-0.58;79.41;101822.53;5031047;28;20569;-62
2022/12/03 04:00:18;;;;;;;62.45;36.83;;;;;;;-0.57;79.69;101817.38;5030851;28;20055;-62
2022/12/03 04:02:45;;;;;;;61.80;37.33;;;;;;;-0.51;79.73;101812.22;5028724;28;20062;-62
2022/12/03 04:05:19;;;;;;;57.55;35.90;;;;;;;-0.53;78.87;101813.94;5030808;28;20421;-63
2022/12/03 04:07:46;;;;;;;57.60;36.28;;;;;;;-0.57;79.18;101814.78;5029715;28;20041;-63
2022/12/03 04:13:02;;;;;;;61.47;37.15;;;;;;;-0.42;79.29;101814.00;4988858;28;20045;-63
2022/12/03 04:15:30;;;;;;;66.97;36.38;;;;;;;-0.37;78.75;101803.66;5029822;28;20057;-63
2022/12/03 04:20:43;;;;;;;63.33;37.20;;;;;;;-0.53;78.50;101802.75;5024376;28;20057;-63
2022/12/03 04:23:11;;;;;;;69.20;40.72;;;;;;;-0.59;78.41;101800.97;5029248;28;20049;-63
2022/12/03 04:36:41;;;;;;;61.65;38.25;;;;;;;-0.58;78.86;101789.78;5048138;23;20055;-62
2022/12/03 04:39:09;;;;;;;58.85;37.70;;;;;;;-0.58;79.41;101797.53;5050235;28;20037;-64
2022/12/03 04:41:36;;;;;;;61.00;37.50;;;;;;;-0.46;79.75;101795.88;5050080;28;20053;-64
2022/12/03 04:46:49;;;;;;;60.63;36.72;;;;;;;-0.54;78.80;101794.13;5047909;28;20048;-64
2022/12/03 04:49:17;;;;;;;63.38;37.72;;;;;;;-0.54;78.66;101791.53;5046719;28;20416;-63
2022/12/03 04:51:44;;;;;;;63.33;37.42;;;;;;;-0.58;78.65;101796.69;5049080;28;20053;-62
2022/12/03 04:54:11;;;;;;;63.13;37.92;;;;;;;-0.62;78.80;101795.78;5049388;28;20051;-63
2022/12/03 04:56:39;;;;;;;57.67;37.22;;;;;;;-0.62;79.46;101793.22;5048541;28;20045;-62
2022/12/03 04:59:06;;;;;;;56.13;35.80;;;;;;;-0.54;79.65;101791.53;5048740;28;20501;-64
2022/12/03 05:01:41;;;;;;;62.90;37.45;;;;;;;-0.61;78.31;101794.94;5049183;28;20059;-63
2022/12/03 05:04:10;;;;;;;61.70;37.55;;;;;;;-0.60;79.00;101785.44;5049155;28;20047;-63
2022/12/03 05:06:37;;;;;;;62.53;37.88;;;;;;;-0.58;79.17;101787.19;5048827;28;20517;-63
2022/12/03 05:09:04;;;;;;;58.63;35.83;;;;;;;-0.49;79.67;101788.09;5043526;28;20047;-62
2022/12/03 05:11:32;;;;;;;64.90;38.55;;;;;;;-0.47;78.79;101786.38;5052527;28;20467;-63
2022/12/03 05:13:59;;;;;;;63.95;37.25;;;;;;;-0.49;78.65;101781.22;5049198;28;20055;-63
2022/12/03 05:16:26;;;;;;;61.67;37.55;;;;;;;-0.46;79.15;101785.50;5042954;28;20361;-62
2022/12/03 05:18:54;;;;;;;63.35;37.97;;;;;;;-0.56;78.52;101782.88;5048477;28;20044;-63
2022/12/03 05:21:21;;;;;;;63.33;38.33;;;;;;;-0.60;79.32;101775.97;5047905;28;20045;-63
2022/12/03 05:23:49;;;;;;;68.95;40.40;;;;;;;-0.72;79.11;101780.19;5047767;28;20540;-63
2022/12/03 05:26:17;;;;;;;64.70;38.15;;;;;;;-0.72;79.42;101782.78;5049497;28;20049;-63
2022/12/03 05:28:44;;;;;;;68.30;40.33;;;;;;;-0.66;79.70;101780.25;5048592;28;20060;-62
2022/12/03 05:31:11;;;;;;;57.72;37.17;;;;;;;-0.69;79.70;101773.31;5048035;28;20209;-63
2022/12/03 05:33:39;;;;;;;68.95;38.70;;;;;;;-0.62;79.80;101782.84;5047692;28;20063;-64
2022/12/03 05:36:10;;;;;;;71.20;39.45;;;;;;;-0.63;79.39;101778.56;5055470;28;20128;-63
2022/12/03 05:38:38;;;;;;;62.70;37.78;;;;;;;-0.65;80.23;101788.00;5049279;28;20048;-63
2022/12/03 05:43:51;;;;;;;67.25;37.72;;;;;;;-0.58;80.17;101776.00;5049216;28;20049;-64
2022/12/03 05:46:18;;;;;;;64.72;39.75;;;;;;;-0.51;79.92;101778.59;5049516;28;20055;-64
2022/12/03 05:48:46;;;;;;;68.60;39.58;;;;;;;-0.59;80.05;101772.50;5044457;28;20051;-64
2022/12/03 05:51:13;;;;;;;66.47;39.22;;;;;;;-0.60;79.93;101773.38;5047971;28;20048;-64
2022/12/03 05:53:41;;;;;;;63.15;39.13;;;;;;;-0.65;80.52;101769.91;5047238;28;20053;-63
2022/12/03 05:56:08;;;;;;;65.05;39.88;;;;;;;-0.66;80.62;101759.56;5044244;28;20453;-63
2022/12/03 05:58:35;;;;;;;69.25;40.92;;;;;;;-0.61;81.05;101769.06;5047388;28;20067;-64
2022/12/03 06:01:03;;;;;;;64.70;37.92;;;;;;;-0.58;81.16;101763.91;5047770;28;20049;-64
2022/12/03 06:03:30;;;;;;;60.88;37.40;;;;;;;-0.68;81.33;101766.44;5047839;28;20049;-63
2022/12/03 06:05:58;;;;;;;63.63;37.83;;;;;;;-0.70;81.43;101769.00;5048323;28;20044;-64
2022/12/03 06:08:25;;;;;;;65.43;39.10;;;;;;;-0.65;81.57;101769.03;5047452;28;20045;-63
2022/12/03 06:10:52;;;;;;;68.82;39.53;;;;;;;-0.72;82.24;101772.44;5048224;28;20142;-64
2022/12/03 06:13:20;;;;;;;65.07;39.20;;;;;;;-0.75;82.08;101777.63;5043539;28;20071;-64
2022/12/03 06:15:47;;;;;;;61.92;37.13;;;;;;;-0.67;82.02;101774.22;5043391;28;20052;-64
2022/12/03 06:18:15;;;;;;;68.97;38.90;;;;;;;-0.72;82.11;101772.44;5046828;28;20045;-64
2022/12/03 06:20:42;;;;;;;63.33;39.58;;;;;;;-0.70;82.29;101771.59;5048070;28;20055;-64
2022/12/03 06:23:09;;;;;;;65.65;40.30;;;;;;;-0.67;82.59;101774.22;5045672;28;20416;-64
2022/12/03 06:25:37;;;;;;;70.93;40.63;;;;;;;-0.68;82.40;101767.28;5047774;28;20509;-64
2022/12/03 06:28:04;;;;;;;66.07;38.60;;;;;;;-0.71;82.26;101771.59;5047606;28;20558;-63
2022/12/03 06:30:34;;;;;;;69.18;39.80;;;;;;;-0.76;82.81;101771.56;5046811;28;20075;-63
2022/12/03 06:33:01;;;;;;;63.58;38.10;;;;;;;-0.67;82.82;101768.19;5046665;28;20079;-63
2022/12/03 06:35:29;;;;;;;69.47;39.40;;;;;;;-0.64;82.10;101766.44;5048260;28;20059;-63
2022/12/03 06:37:56;;;;;;;66.70;39.50;;;;;;;-0.61;82.02;101770.78;5047490;28;20516;-63
2022/12/03 06:40:23;;;;;;;66.57;38.88;;;;;;;-0.58;81.94;101776.00;5052212;28;20045;-64
2022/12/03 06:42:51;;;;;;;71.70;41.95;;;;;;;-0.62;82.03;101774.25;5052031;28;20049;-64
2022/12/03 06:45:18;;;;;;;67.03;38.63;;;;;;;-0.63;82.56;101770.78;5048116;28;20420;-64
2022/12/03 06:47:46;;;;;;;69.20;39.72;;;;;;;-0.62;81.94;101772.50;5047683;28;20064;-63
2022/12/03 06:50:13;;;;;;;66.93;39.70;;;;;;;-0.66;82.30;101775.94;5044716;28;20063;-64
2022/12/03 06:52:40;;;;;;;63.25;36.80;;;;;;;-0.65;82.78;101769.91;5048440;28;20068;-62
2022/12/03 06:55:08;;;;;;;69.38;40.08;;;;;;;-0.62;82.17;101769.94;5029695;28;20513;-60
2022/12/03 06:57:35;;;;;;;66.75;40.78;;;;;;;-0.73;83.01;101766.41;5046744;28;20045;-62
2022/12/03 07:00:05;;;;;;;79.53;41.95;;;;;;;-0.86;83.29;101773.22;5046356;28;20037;-62
2022/12/03 07:02:32;;;;;;;69.20;38.00;;;;;;;-0.83;83.69;101773.25;5032604;28;20432;-62
2022/12/03 07:04:59;;;;;;;70.78;39.90;;;;;;;-0.74;83.07;101774.16;5048045;28;20045;-63
2022/12/03 07:07:27;;;;;;;70.68;40.15;;;;;;;-0.80;84.37;101768.09;5049329;28;20056;-62
2022/12/03 07:09:54;;;;;;;63.78;37.75;;;;;;;-0.72;83.41;101764.69;5051495;28;20049;-62
2022/12/03 07:12:22;;;;;;;70.10;40.22;;;;;;;-0.67;83.29;101763.88;5033633;28;20057;-62
2022/12/03 07:14:49;;;;;;;71.18;39.97;;;;;;;-0.71;83.56;101764.72;5048301;28;20057;-62
2022/12/03 07:17:16;;;;;;;69.90;40.75;;;;;;;-0.77;83.62;101773.31;5054208;28;20053;-63
2022/12/03 07:19:44;;;;;;;71.68;39.53;;;;;;;-0.76;83.95;101769.00;5051561;28;20514;-63
2022/12/03 07:22:11;;;;;;;68.35;39.40;;;;;;;-0.71;83.61;101771.59;5051111;28;20040;-62
2022/12/03 07:24:38;;;;;;;70.25;41.35;;;;;;;-0.79;84.07;101771.53;5039976;28;20053;-62
2022/12/03 07:27:05;;;;;;;70.35;39.97;;;;;;;-0.75;84.39;101773.31;5056689;28;20199;-62
2022/12/03 07:29:33;;;;;;;70.30;37.97;;;;;;;-0.69;83.75;101768.16;5051997;28;20057;-63
2022/12/03 07:32:00;;;;;;;67.80;40.22;;;;;;;-0.69;83.90;101767.28;5051028;28;20045;-63
2022/12/03 07:34:27;;;;;;;66.22;40.55;;;;;;;-0.63;83.83;101770.78;5048964;28;20047;-62
2022/12/03 07:36:55;;;;;;;71.32;39.97;;;;;;;-0.64;83.91;101760.41;5050564;28;20743;-63
2022/12/03 07:39:22;;;;;;;73.22;41.95;;;;;;;-0.74;84.13;101763.81;5033885;28;20064;-63
2022/12/03 07:41:49;;;;;;;66.47;39.55;;;;;;;-0.72;84.21;101760.41;5050654;28;20059;-63
2022/12/03 07:44:16;;;;;;;67.95;40.38;;;;;;;-0.70;84.19;101768.16;5045874;28;20049;-61
2022/12/03 07:46:44;;;;;;;64.53;38.28;;;;;;;-0.67;83.83;101769.03;5050720;28;20045;-63
2022/12/03 07:49:11;;;;;;;75.13;42.58;;;;;;;-0.71;84.12;101761.25;5044964;28;20045;-63
2022/12/03 07:51:39;;;;;;;75.65;42.42;;;;;;;-0.77;84.55;101767.25;5049930;28;20033;-63
2022/12/03 07:54:06;;;;;;;70.80;39.85;;;;;;;-0.80;85.11;101767.25;5051224;28;20063;-62
2022/12/03 07:56:33;;;;;;;72.18;41.58;;;;;;;-0.74;84.60;101772.44;5049855;28;20539;-63
2022/12/03 07:59:01;;;;;;;69.65;41.15;;;;;;;-0.73;84.30;101763.81;5027132;28;20045;-63
2022/12/03 08:01:28;;;;;;;69.45;40.72;;;;;;;-0.83;85.00;101767.22;5047184;28;20049;-63
2022/12/03 08:03:55;;;;;;;73.40;42.30;;;;;;;-0.92;85.05;101767.16;5049849;28;20483;-62
2022/12/03 08:06:23;;;;;;;68.65;41.75;;;;;;;-0.96;85.46;101752.47;5051101;28;20570;-63
2022/12/03 08:08:50;;;;;;;73.55;41.47;;;;;;;-0.88;85.25;101753.41;5047973;28;20045;-62
2022/12/03 08:11:17;;;;;;;71.05;42.10;;;;;;;-0.87;85.46;101757.69;5050747;28;20041;-63
2022/12/03 08:13:45;;;;;;;69.07;38.78;;;;;;;-0.79;85.19;101754.31;5049668;28;20041;-63
2022/12/03 08:16:19;;;;;;;74.50;41.38;;;;;;;-0.69;84.80;101746.59;5048085;28;20052;-63
2022/12/03 08:18:48;;;;;;;69.32;40.10;;;;;;;-0.66;84.65;101744.91;5047421;28;20443;-64
2022/12/03 08:21:18;;;;;;;65.57;38.33;;;;;;;-0.63;83.85;101744.03;5033456;28;20056;-63
2022/12/03 08:23:45;;;;;;;76.25;43.03;;;;;;;-0.69;84.25;101738.84;5048368;28;20067;-63
2022/12/03 08:26:28;;;;;;;73.13;41.58;;;;;;;-0.77;84.36;101744.88;5014396;28;20159;-61
2022/12/03 08:28:56;;;;;;;74.15;39.63;;;;;;;-0.78;84.81;101747.41;5025482;28;20059;-63
2022/12/03 08:31:25;;;;;;;71.82;40.78;;;;;;;-0.75;84.52;101744.00;5046781;28;20045;-63
2022/12/03 08:34:20;;;;;;;76.47;43.70;;;;;;;-0.78;84.62;101740.53;5041921;28;20702;-62
2022/12/03 08:36:55;;;;;;;69.25;40.10;;;;;;;-0.69;84.62;101749.19;5042307;28;20053;-63
2022/12/03 08:39:33;;;;;;;66.93;39.75;;;;;;;-0.65;84.36;101740.59;5028610;28;20060;-63
2022/12/03 08:45:19;;;;;;;67.47;39.13;;;;;;;-0.58;84.29;101743.22;5039811;28;20044;-62
2022/12/03 08:47:46;;;;;;;68.65;41.38;;;;;;;-0.53;83.97;101738.94;5039526;28;20057;-63
2022/12/03 08:50:28;;;;;;;75.43;42.13;;;;;;;-0.64;84.66;101742.31;5043162;28;20059;-63
2022/12/03 08:53:14;;;;;;;77.25;43.90;;;;;;;-0.71;84.43;101741.44;5046023;28;20051;-64
2022/12/03 08:55:46;;;;;;;76.18;43.30;;;;;;;-0.64;84.66;101744.91;5040366;28;20195;-63
2022/12/03 08:58:13;;;;;;;68.57;40.58;;;;;;;-0.61;84.28;101743.19;5044764;28;20053;-63
2022/12/03 09:00:41;;;;;;;77.25;41.85;;;;;;;-0.58;84.55;101740.66;5039130;28;20045;-64
2022/12/03 09:03:13;;;;;;;78.20;42.33;;;;;;;-0.60;84.68;101736.31;5043369;28;20048;-66
2022/12/03 09:05:41;;;;;;;71.57;39.60;;;;;;;-0.56;84.28;101741.50;5028120;28;20060;-62
2022/12/03 09:08:08;;;;;;;74.57;40.72;;;;;;;-0.60;84.62;101742.34;5042717;28;20053;-63
2022/12/03 09:10:35;;;;;;;74.63;39.67;;;;;;;-0.58;84.61;101743.22;5025179;28;20055;-63
2022/12/03 09:13:03;;;;;;;72.88;39.47;;;;;;;-0.57;84.86;101750.13;5041510;28;20533;-63
2022/12/03 09:15:30;;;;;;;72.97;41.83;;;;;;;-0.69;86.37;101744.03;5042738;28;20049;-64
2022/12/03 09:17:57;;;;;;;71.53;38.35;;;;;;;-0.67;85.51;101740.59;5045669;28;20542;-62
2022/12/03 09:20:25;;;;;;;69.03;38.92;;;;;;;-0.66;85.55;101737.16;5045970;28;20041;-63
2022/12/03 09:22:52;;;;;;;66.53;38.42;;;;;;;-0.63;85.64;101739.75;5049418;28;20045;-63
2022/12/03 09:25:19;;;;;;;71.97;40.78;;;;;;;-0.62;85.71;101736.31;5049718;28;20408;-64
2022/12/03 09:27:47;;;;;;;73.85;39.47;;;;;;;-0.64;85.96;101737.16;5034492;28;20045;-62
2022/12/03 09:30:14;;;;;;;78.22;41.95;;;;;;;-0.64;85.89;101732.84;5047256;28;20037;-63
2022/12/03 09:32:42;;;;;;;76.18;41.22;;;;;;;-0.62;86.15;101728.56;5031395;28;20049;-63
2022/12/03 09:35:09;;;;;;;76.55;41.95;;;;;;;-0.54;85.77;101725.97;5045547;28;20583;-62
2022/12/03 09:37:36;;;;;;;76.50;40.55;;;;;;;-0.52;85.95;101730.31;5047810;28;20052;-64
2022/12/03 09:40:04;;;;;;;74.90;39.75;;;;;;;-0.51;86.26;101723.41;5051874;28;20047;-64
2022/12/03 09:42:32;;;;;;;75.90;40.63;;;;;;;-0.51;86.77;101723.41;5064181;28;20084;-63
2022/12/03 09:45:02;;;;;;;73.75;41.42;;;;;;;-0.43;86.39;101715.69;5029975;28;20048;-64
2022/12/03 09:47:30;;;;;;;76.95;41.40;;;;;;;-0.32;86.20;101720.03;5053935;28;20127;-61
2022/12/03 09:49:57;;;;;;;73.93;39.80;;;;;;;-0.37;86.47;101715.69;5031963;28;20404;-61
2022/12/03 09:52:26;;;;;;;78.22;42.83;;;;;;;-0.34;85.90;101718.31;5048412;28;20052;-63
2022/12/03 09:54:54;;;;;;;70.90;39.58;;;;;;;-0.32;86.34;101716.59;5030820;28;20049;-63
2022/12/03 09:57:22;;;;;;;73.03;39.45;;;;;;;-0.32;86.04;101719.16;5047019;28;20052;-60
2022/12/03 09:59:49;;;;;;;77.95;40.50;;;;;;;-0.30;85.50;101712.28;5030241;28;20045;-65
2022/12/03 10:02:23;;;;;;;72.07;40.53;;;;;;;-0.23;85.58;101707.97;5048895;28;20045;-63
2022/12/03 10:04:51;;;;;;;77.75;41.08;;;;;;;-0.17;85.09;101701.13;5047517;28;20055;-64
2022/12/03 10:07:19;;;;;;;73.28;39.50;;;;;;;-0.19;84.95;101699.38;5031450;28;20053;-64
2022/12/03 10:09:47;;;;;;;68.07;38.20;;;;;;;-0.18;85.25;101694.22;5042998;28;20049;-64
2022/12/03 10:12:21;;;;;;;72.38;39.00;;;;;;;-0.11;84.79;101697.69;5049019;28;20084;-63
2022/12/03 10:14:48;;;;;;;80.70;41.03;;;;;;;-0.07;84.47;101696.81;5047072;28;20075;-64
2022/12/03 10:17:16;;;;;;;81.07;39.63;;;;;;;-0.10;84.56;101689.91;5031702;28;20064;-65
2022/12/03 10:19:43;;;;;;;71.78;38.72;;;;;;;-0.20;85.24;101698.50;5048956;28;20359;-62
2022/12/03 10:22:11;;;;;;;74.70;38.83;;;;;;;-0.21;85.38;101695.94;5032296;28;20039;-60
2022/12/03 10:24:38;;;;;;;77.28;39.70;;;;;;;-0.27;85.62;101695.06;5048877;28;20524;-63
2022/12/03 10:27:23;;;;;;;74.75;40.67;;;;;;;-0.28;85.49;101693.31;5043625;28;20045;-62
2022/12/03 10:29:55;;;;;;;73.15;39.17;;;;;;;-0.25;85.18;101689.88;5046197;28;20059;-64
2022/12/03 10:32:39;;;;;;;74.32;39.42;;;;;;;-0.25;85.39;101684.69;5054887;28;20097;-64
2022/12/03 10:35:10;;;;;;;73.70;40.10;;;;;;;-0.21;85.49;101683.84;5048683;28;20038;-59
2022/12/03 10:37:54;;;;;;;76.38;38.40;;;;;;;-0.13;84.59;101681.28;5045892;28;20527;-65
2022/12/03 10:40:27;;;;;;;77.47;38.67;;;;;;;-0.17;85.08;101683.00;5042541;28;20079;-64
2022/12/03 10:43:12;;;;;;;82.07;40.22;;;;;;;-0.18;84.98;101683.88;5037465;28;20046;-63
2022/12/03 10:45:41;;;;;;;75.60;40.05;;;;;;;-0.21;84.53;101670.91;5049857;28;20115;-64
2022/12/03 10:48:19;;;;;;;76.10;38.67;;;;;;;-0.21;84.69;101681.25;5034860;28;20044;-64
2022/12/03 10:50:59;;;;;;;78.65;40.80;;;;;;;-0.20;84.68;101672.63;5034555;28;20049;-64
2022/12/03 10:53:29;;;;;;;80.68;40.17;;;;;;;-0.30;85.15;101676.94;5031618;28;20063;-63
2022/12/03 10:55:59;;;;;;;72.10;37.78;;;;;;;-0.35;85.68;101675.19;5050942;28;20060;-64
2022/12/03 10:58:33;;;;;;;75.03;38.17;;;;;;;-0.33;85.77;101674.31;5040226;28;20093;-64
2022/12/03 11:01:02;;;;;;;80.82;39.65;;;;;;;-0.27;85.84;101669.19;5051697;28;20049;-64
2022/12/03 11:03:33;;;;;;;74.38;39.13;;;;;;;-0.23;85.15;101671.75;5052021;28;20049;-64
2022/12/03 11:06:02;;;;;;;74.22;39.42;;;;;;;-0.22;85.51;101673.50;5033878;28;20053;-64
2022/12/03 11:08:32;;;;;;;76.40;39.35;;;;;;;-0.25;85.68;101669.19;5034093;28;20075;-64
2022/12/03 11:11:21;;;;;;;73.38;38.22;;;;;;;-0.22;85.40;101666.59;5033920;28;20052;-64
2022/12/03 11:13:54;;;;;;;68.55;35.50;;;;;;;-0.11;85.68;101662.28;5052411;28;20429;-64
2022/12/03 11:16:39;;;;;;;73.82;37.20;;;;;;;0.04;84.83;101666.63;5049388;28;20045;-64
2022/12/03 11:19:12;;;;;;;70.90;38.08;;;;;;;0.11;84.34;101664.91;5049928;28;20048;-63
2022/12/03 11:22:04;;;;;;;74.30;38.15;;;;;;;0.04;84.79;101658.84;5050467;28;20047;-63
2022/12/03 11:24:33;;;;;;;79.03;39.58;;;;;;;0.03;84.75;101656.28;5049068;28;20416;-64
2022/12/03 11:27:00;;;;;;;78.82;36.85;;;;;;;0.03;84.45;101654.53;5036818;28;20049;-63
2022/12/03 11:30:00;;;;;;;79.55;38.92;;;;;;;-0.05;84.73;101648.50;5033253;28;20055;-65
2022/12/03 11:32:36;;;;;;;76.65;38.50;;;;;;;-0.06;85.03;101642.47;5013029;28;20053;-65
2022/12/03 11:35:13;;;;;;;72.50;36.97;;;;;;;-0.08;85.09;101646.78;5044689;28;20045;-64
2022/12/03 11:37:41;;;;;;;72.07;36.88;;;;;;;-0.02;84.96;101638.16;5045934;28;20068;-65
2022/12/03 11:40:17;;;;;;;67.95;36.05;;;;;;;0.05;84.57;101633.84;5045421;28;20053;-65
2022/12/03 11:42:46;;;;;;;68.97;35.90;;;;;;;0.05;84.46;101634.72;5047482;28;20051;-65
2022/12/03 11:45:29;;;;;;;79.70;39.22;;;;;;;0.03;84.57;101628.66;5015622;28;20055;-64